Milltown, Montana
Current Conditions -  °F | °C
As of 1:53 PM on Sunday 23 Nov 2014 (Local Time) from KMSO Reporting Station
Overcast Overcast  
Wind Chill: 32°   Ceiling: 6500
Heat Index: 38°   Visibility: 10mi
Dew Point: 29°   Wind: 8mph
Humidity: 70%   Direction: 170°S
Pressure: 30.04"   Gusts: NA
Location:  46.87°N, 113.88°W
Report Text: KMSO 232053Z 17007KT 10SM OVC065 03/M02 A3004 RMK AO2 SLP194 T00331017 58027
Loading
Personal Weather Stations






























Interactive Weather Map New forecast layout! Learn more

10-Day Weather Forecast

Advertisements
Track Severe Weather on mobile